createdAt,value
2023-03-22T00:00:37.158Z,29.70
2023-03-22T00:01:36.743Z,29.50
2023-03-22T00:02:36.720Z,28.80
2023-03-22T00:03:36.769Z,29.40
2023-03-22T00:04:36.684Z,29.30
2023-03-22T00:05:36.636Z,28.50
2023-03-22T00:06:36.634Z,30.00
2023-03-22T00:07:36.601Z,28.80
2023-03-22T00:08:36.593Z,29.80
2023-03-22T00:09:36.625Z,29.70
2023-03-22T00:10:36.769Z,29.90
2023-03-22T00:11:36.541Z,29.70
2023-03-22T00:12:36.522Z,28.90
2023-03-22T00:13:36.551Z,28.80
2023-03-22T00:14:36.523Z,28.00
2023-03-22T00:15:36.472Z,29.30
2023-03-22T00:16:36.446Z,28.20
2023-03-22T00:17:36.448Z,29.10
2023-03-22T00:18:36.434Z,28.40
2023-03-22T00:19:36.436Z,28.90
2023-03-22T00:20:36.404Z,29.00
2023-03-22T00:21:36.377Z,29.00
2023-03-22T00:22:36.336Z,29.20
2023-03-22T00:23:36.333Z,29.10
2023-03-22T00:24:36.418Z,28.30
2023-03-22T00:25:36.303Z,29.30
2023-03-22T00:26:36.294Z,28.60
2023-03-22T00:27:36.258Z,29.30
2023-03-22T00:28:36.257Z,29.00
2023-03-22T00:29:36.255Z,28.90
2023-03-22T00:30:36.217Z,28.60
2023-03-22T00:31:36.262Z,28.90
2023-03-22T00:32:36.182Z,29.40
2023-03-22T00:33:36.158Z,29.40
2023-03-22T00:34:36.165Z,28.50
2023-03-22T00:35:36.160Z,29.90
2023-03-22T00:36:37.121Z,29.00
2023-03-22T00:37:36.096Z,29.40
2023-03-22T00:38:42.633Z,29.10
2023-03-22T00:39:38.116Z,28.60
2023-03-22T00:40:36.072Z,28.20
2023-03-22T00:41:36.036Z,28.40
2023-03-22T00:42:36.914Z,29.60
2023-03-22T00:43:35.987Z,27.80
2023-03-22T00:44:36.959Z,28.80
2023-03-22T00:45:35.983Z,28.30
2023-03-22T00:46:36.003Z,27.80
2023-03-22T00:47:35.923Z,28.60
2023-03-22T00:48:35.893Z,28.90
2023-03-22T00:49:35.873Z,28.90
2023-03-22T00:50:35.964Z,28.60
2023-03-22T00:51:35.839Z,28.90
2023-03-22T00:52:35.849Z,28.70
2023-03-22T00:53:35.819Z,28.80
2023-03-22T00:54:35.797Z,28.30
2023-03-22T00:55:35.798Z,28.90
2023-03-22T00:56:35.753Z,29.20
2023-03-22T00:57:35.735Z,28.50
2023-03-22T00:58:36.392Z,28.40
2023-03-22T00:59:36.765Z,28.90
2023-03-22T01:00:35.692Z,28.40
2023-03-22T01:01:35.757Z,29.20
2023-03-22T01:02:35.648Z,28.70
2023-03-22T01:03:35.675Z,29.40
2023-03-22T01:04:35.642Z,29.10
2023-03-22T01:05:35.621Z,29.50
2023-03-22T01:06:35.575Z,28.90
2023-03-22T01:07:35.571Z,29.20
2023-03-22T01:08:35.558Z,29.10
2023-03-22T01:09:35.529Z,28.80
2023-03-22T01:10:35.538Z,28.30
2023-03-22T01:11:35.486Z,29.10
2023-03-22T01:12:35.465Z,29.50
2023-03-22T01:13:35.458Z,29.00
2023-03-22T01:14:35.468Z,29.40
2023-03-22T01:15:35.459Z,29.40
2023-03-22T01:16:35.408Z,30.40
2023-03-22T01:17:36.380Z,29.90
2023-03-22T01:18:35.374Z,29.20
2023-03-22T01:19:35.356Z,28.90
2023-03-22T01:20:35.365Z,29.30
2023-03-22T01:21:35.336Z,29.30
2023-03-22T01:22:35.310Z,28.80
2023-03-22T01:23:35.307Z,28.40
2023-03-22T01:24:35.340Z,29.60
2023-03-22T01:25:35.282Z,29.40
2023-03-22T01:26:35.245Z,29.80
2023-03-22T01:27:35.216Z,28.80
2023-03-22T01:28:35.192Z,28.90
2023-03-22T01:29:35.178Z,29.40
2023-03-22T01:30:35.979Z,28.30
2023-03-22T01:31:35.151Z,28.30
2023-03-22T01:32:35.141Z,28.10
2023-03-22T01:33:35.110Z,28.80
2023-03-22T01:34:35.095Z,28.70
2023-03-22T01:35:35.140Z,29.20
2023-03-22T01:36:35.067Z,28.00
2023-03-22T01:37:35.033Z,27.80
2023-03-22T01:38:35.019Z,28.60
2023-03-22T01:39:35.004Z,28.10
2023-03-22T01:40:35.043Z,27.50
2023-03-22T01:41:34.986Z,28.50
2023-03-22T01:42:34.960Z,28.20
2023-03-22T01:43:34.939Z,27.90
2023-03-22T01:44:34.932Z,27.20
2023-03-22T01:45:34.923Z,27.70
2023-03-22T01:46:34.975Z,27.50
2023-03-22T01:47:34.878Z,27.90
2023-03-22T01:48:34.857Z,27.80
2023-03-22T01:49:34.853Z,28.60
2023-03-22T01:50:34.837Z,27.70
2023-03-22T01:51:34.817Z,27.60
2023-03-22T01:52:34.773Z,28.50
2023-03-22T01:53:34.756Z,27.80
2023-03-22T01:54:34.758Z,27.90
2023-03-22T01:55:34.757Z,27.80
2023-03-22T01:56:34.705Z,28.60
2023-03-22T01:57:34.700Z,27.30
2023-03-22T01:58:34.669Z,28.30
2023-03-22T01:59:34.658Z,27.70
2023-03-22T02:00:34.686Z,29.40
2023-03-22T02:01:34.693Z,27.40
2023-03-22T02:02:34.638Z,26.90
2023-03-22T02:03:34.588Z,28.10
2023-03-22T02:04:34.571Z,29.10
2023-03-22T02:05:34.607Z,27.90
2023-03-22T02:06:34.524Z,28.30
2023-03-22T02:07:34.512Z,28.00
2023-03-22T02:08:34.524Z,29.00
2023-03-22T02:09:34.490Z,28.30
2023-03-22T02:10:34.491Z,28.40
2023-03-22T02:11:34.452Z,29.10
2023-03-22T02:12:35.430Z,28.30
2023-03-22T02:13:34.439Z,28.20
2023-03-22T02:14:34.401Z,28.20
2023-03-22T02:15:34.440Z,28.90
2023-03-22T02:16:34.361Z,28.30
2023-03-22T02:17:34.338Z,28.20
2023-03-22T02:18:34.385Z,28.60
2023-03-22T02:19:34.310Z,28.20
2023-03-22T02:20:34.313Z,27.90
2023-03-22T02:21:34.279Z,28.80
2023-03-22T02:22:34.262Z,29.60
2023-03-22T02:23:34.222Z,28.90
2023-03-22T02:24:35.227Z,28.60
2023-03-22T02:25:34.248Z,27.80
2023-03-22T02:26:34.182Z,29.50
2023-03-22T02:27:34.162Z,28.90
2023-03-22T02:28:34.149Z,28.30
2023-03-22T02:29:34.125Z,29.50
2023-03-22T02:30:34.151Z,28.30
2023-03-22T02:31:34.131Z,29.00
2023-03-22T02:32:34.072Z,29.10
2023-03-22T02:33:34.056Z,29.00
2023-03-22T02:34:34.041Z,28.80
2023-03-22T02:35:34.093Z,29.00
2023-03-22T02:36:34.011Z,28.90
2023-03-22T02:37:34.006Z,29.00
2023-03-22T02:38:33.976Z,28.50
2023-03-22T02:39:33.963Z,29.20
2023-03-22T02:40:33.979Z,29.20
2023-03-22T02:41:33.920Z,28.90
2023-03-22T02:42:33.909Z,28.80
2023-03-22T02:43:33.887Z,29.10
2023-03-22T02:44:33.862Z,29.50
2023-03-22T02:45:33.881Z,28.50
2023-03-22T02:46:33.932Z,29.50
2023-03-22T02:47:33.816Z,28.70
2023-03-22T02:48:33.813Z,29.40
2023-03-22T02:49:33.785Z,29.80
2023-03-22T02:50:33.797Z,29.00
2023-03-22T02:51:33.749Z,30.10
2023-03-22T02:52:33.733Z,29.60
2023-03-22T02:53:33.719Z,29.80
2023-03-22T02:54:33.708Z,28.50
2023-03-22T02:55:33.710Z,29.30
2023-03-22T02:56:33.682Z,28.40
2023-03-22T02:57:33.649Z,28.90
2023-03-22T02:58:33.642Z,28.30
2023-03-22T02:59:33.613Z,28.20
2023-03-22T03:00:33.697Z,29.40
2023-03-22T03:01:33.579Z,30.50
2023-03-22T03:02:33.558Z,28.40
2023-03-22T03:03:33.556Z,29.10
2023-03-22T03:04:33.526Z,29.40
2023-03-22T03:05:33.546Z,29.20
2023-03-22T03:06:33.480Z,27.80
2023-03-22T03:07:33.469Z,28.20
2023-03-22T03:08:33.451Z,28.50
2023-03-22T03:09:33.446Z,29.40
2023-03-22T03:10:33.463Z,28.60
2023-03-22T03:11:33.410Z,29.30
2023-03-22T03:12:33.436Z,28.80
2023-03-22T03:13:33.370Z,29.40
2023-03-22T03:14:33.372Z,28.70
2023-03-22T03:15:33.357Z,28.10
2023-03-22T03:16:33.375Z,29.00
2023-03-22T03:17:33.343Z,29.10
2023-03-22T03:18:33.282Z,28.70
2023-03-22T03:19:33.263Z,28.00
2023-03-22T03:20:33.264Z,28.20
2023-03-22T03:21:33.218Z,28.40
2023-03-22T03:22:33.212Z,27.60
2023-03-22T03:23:33.200Z,27.70
2023-03-22T03:24:33.178Z,27.20
2023-03-22T03:25:33.208Z,28.20
2023-03-22T03:26:33.148Z,28.80
2023-03-22T03:27:33.127Z,27.90
2023-03-22T03:28:33.105Z,27.30
2023-03-22T03:29:33.090Z,27.10
2023-03-22T03:30:33.132Z,27.50
2023-03-22T03:31:33.925Z,27.40
2023-03-22T03:32:33.029Z,28.70
2023-03-22T03:33:33.014Z,26.80
2023-03-22T03:34:32.998Z,27.40
2023-03-22T03:35:33.051Z,28.10
2023-03-22T03:36:32.979Z,27.70
2023-03-22T03:37:32.952Z,27.00
2023-03-22T03:38:32.926Z,27.60
2023-03-22T03:39:32.908Z,27.60
2023-03-22T03:40:32.925Z,26.30
2023-03-22T03:41:32.875Z,26.90
2023-03-22T03:42:32.889Z,26.70
2023-03-22T03:43:32.840Z,27.60
2023-03-22T03:44:32.850Z,27.20
2023-03-22T03:45:32.863Z,28.70
2023-03-22T03:46:32.891Z,27.10
2023-03-22T03:47:32.772Z,26.50
2023-03-22T03:48:32.841Z,26.00
2023-03-22T03:49:32.730Z,25.80
2023-03-22T03:50:32.742Z,25.90
2023-03-22T03:51:32.698Z,26.50
2023-03-22T03:52:32.676Z,26.50
2023-03-22T03:53:32.666Z,26.20
2023-03-22T03:54:32.640Z,25.70
2023-03-22T03:55:32.658Z,26.00
2023-03-22T03:56:32.625Z,26.20
2023-03-22T03:57:32.658Z,26.20
2023-03-22T03:58:32.575Z,26.50
2023-03-22T03:59:32.557Z,26.50
2023-03-22T04:00:32.572Z,25.60
2023-03-22T04:01:33.534Z,26.00
2023-03-22T04:02:32.547Z,25.90
2023-03-22T04:03:32.496Z,26.20
2023-03-22T04:04:32.479Z,25.70
2023-03-22T04:05:33.501Z,26.60
2023-03-22T04:06:32.438Z,26.60
2023-03-22T04:07:32.423Z,25.90
2023-03-22T04:08:32.431Z,25.30
2023-03-22T04:09:32.399Z,25.60
2023-03-22T04:10:32.419Z,26.70
2023-03-22T04:11:32.355Z,24.80
2023-03-22T04:12:32.392Z,25.20
2023-03-22T04:13:32.327Z,24.50
2023-03-22T04:14:32.310Z,24.40
2023-03-22T04:15:32.339Z,25.50
2023-03-22T04:16:32.288Z,25.70
2023-03-22T04:17:32.274Z,24.80
2023-03-22T04:18:32.240Z,26.00
2023-03-22T04:19:32.328Z,24.90
2023-03-22T04:20:32.202Z,24.50
2023-03-22T04:21:32.223Z,24.20
2023-03-22T04:22:32.166Z,23.90
2023-03-22T04:23:32.155Z,24.50
2023-03-22T04:24:32.134Z,24.60
2023-03-22T04:25:32.111Z,24.60
2023-03-22T04:26:32.370Z,24.50
2023-03-22T04:27:32.072Z,24.50
2023-03-22T04:28:32.052Z,23.50
2023-03-22T04:29:32.040Z,23.90
2023-03-22T04:30:32.023Z,23.60
2023-03-22T04:31:32.063Z,23.80
2023-03-22T04:32:31.988Z,24.10
2023-03-22T04:33:31.967Z,24.60
2023-03-22T04:34:31.954Z,24.80
2023-03-22T04:35:31.945Z,24.90
2023-03-22T04:36:31.943Z,23.90
2023-03-22T04:37:31.901Z,25.00
2023-03-22T04:38:31.947Z,24.90
2023-03-22T04:39:31.869Z,25.30
2023-03-22T04:40:31.842Z,25.30
2023-03-22T04:41:31.859Z,25.20
2023-03-22T04:42:31.821Z,24.40
2023-03-22T04:43:32.795Z,24.60
2023-03-22T04:44:31.779Z,24.60
2023-03-22T04:45:31.757Z,25.10
2023-03-22T04:46:31.839Z,25.30
2023-03-22T04:47:31.733Z,25.30
2023-03-22T04:48:31.700Z,24.70
2023-03-22T04:49:31.700Z,25.60
2023-03-22T04:50:31.696Z,24.40
2023-03-22T04:51:31.684Z,25.20
2023-03-22T04:52:31.639Z,25.00
2023-03-22T04:53:31.623Z,25.90
2023-03-22T04:54:31.608Z,25.20
2023-03-22T04:55:31.588Z,26.10
2023-03-22T04:56:31.616Z,25.70
2023-03-22T04:57:31.563Z,25.50
2023-03-22T04:58:31.535Z,26.40
2023-03-22T04:59:31.524Z,25.80
2023-03-22T05:00:31.502Z,26.10
2023-03-22T05:01:31.545Z,26.00
2023-03-22T05:02:31.521Z,26.40
2023-03-22T05:03:31.447Z,26.10
2023-03-22T05:04:31.451Z,26.40
2023-03-22T05:05:31.444Z,25.60
2023-03-22T05:06:31.444Z,24.90
2023-03-22T05:07:31.480Z,25.50
2023-03-22T05:08:31.386Z,25.20
2023-03-22T05:09:31.349Z,25.20
2023-03-22T05:10:31.329Z,25.00
2023-03-22T05:11:31.330Z,25.50
2023-03-22T05:12:31.300Z,25.40
2023-03-22T05:13:31.266Z,25.00
2023-03-22T05:14:31.278Z,25.40
2023-03-22T05:15:31.236Z,25.00
2023-03-22T05:16:31.261Z,25.40
2023-03-22T05:17:31.228Z,25.10
2023-03-22T05:18:31.181Z,25.00
2023-03-22T05:19:31.161Z,25.30
2023-03-22T05:20:31.173Z,25.20
2023-03-22T05:21:31.164Z,24.70
2023-03-22T05:22:31.116Z,25.00
2023-03-22T05:23:31.092Z,25.40
2023-03-22T05:24:31.076Z,24.70
2023-03-22T05:25:31.081Z,24.60
2023-03-22T05:26:31.080Z,25.40
2023-03-22T05:27:31.081Z,24.50
2023-03-22T05:28:31.015Z,25.00
2023-03-22T05:29:30.994Z,25.70
2023-03-22T05:30:30.974Z,25.10
2023-03-22T05:31:31.056Z,25.00
2023-03-22T05:32:30.948Z,24.60
2023-03-22T05:33:30.918Z,24.40
2023-03-22T05:34:30.921Z,24.70
2023-03-22T05:35:30.908Z,24.30
2023-03-22T05:36:30.903Z,24.10
2023-03-22T05:37:30.852Z,24.10
2023-03-22T05:38:30.836Z,24.00
2023-03-22T05:39:30.833Z,23.00
2023-03-22T05:40:30.799Z,23.50
2023-03-22T05:41:30.813Z,23.80
2023-03-22T05:42:30.769Z,23.60
2023-03-22T05:43:30.769Z,23.30
2023-03-22T05:44:30.742Z,22.70
2023-03-22T05:45:30.730Z,22.30
2023-03-22T05:46:30.772Z,22.30
2023-03-22T05:47:30.695Z,23.10
2023-03-22T05:48:30.664Z,22.60
2023-03-22T05:49:30.698Z,21.40
2023-03-22T05:50:30.630Z,21.10
2023-03-22T05:51:30.674Z,21.40
2023-03-22T05:52:30.598Z,21.10
2023-03-22T05:53:30.585Z,20.90
2023-03-22T05:54:30.562Z,19.80
2023-03-22T05:55:30.547Z,19.50
2023-03-22T05:56:30.575Z,19.30
2023-03-22T05:57:30.532Z,19.00
2023-03-22T05:58:30.497Z,17.90
2023-03-22T05:59:30.489Z,17.60
2023-03-22T06:00:30.469Z,18.30
2023-03-22T06:01:30.470Z,16.80
2023-03-22T06:02:30.423Z,16.80
2023-03-22T06:03:30.516Z,15.30
2023-03-22T06:04:30.386Z,15.90
2023-03-22T06:05:30.381Z,16.00
2023-03-22T06:06:30.399Z,15.90
2023-03-22T06:07:30.366Z,15.40
2023-03-22T06:08:30.353Z,14.90
2023-03-22T06:09:30.349Z,15.70
2023-03-22T06:10:30.310Z,15.10
2023-03-22T06:11:30.292Z,15.30
2023-03-22T06:12:31.266Z,15.70
2023-03-22T06:13:30.316Z,14.70
2023-03-22T06:14:30.269Z,14.60
2023-03-22T06:15:30.214Z,15.10
2023-03-22T06:16:30.259Z,14.50
2023-03-22T06:17:30.170Z,14.60
2023-03-22T06:18:30.164Z,14.40
2023-03-22T06:19:30.163Z,13.50
2023-03-22T06:20:30.167Z,14.10
2023-03-22T06:21:30.129Z,13.70
2023-03-22T06:22:30.196Z,13.30
2023-03-22T06:23:30.081Z,13.50
2023-03-22T06:24:30.058Z,14.30
2023-03-22T06:25:30.074Z,13.70
2023-03-22T06:26:30.068Z,13.80
2023-03-22T06:27:29.993Z,13.80
2023-03-22T06:28:30.030Z,13.60
2023-03-22T06:29:29.954Z,13.70
2023-03-22T06:30:30.029Z,13.50
2023-03-22T06:31:29.949Z,12.70
2023-03-22T06:32:29.909Z,12.30
2023-03-22T06:33:29.911Z,11.50
2023-03-22T06:34:29.861Z,11.40
2023-03-22T06:35:29.857Z,10.30
2023-03-22T06:36:29.848Z,10.30
2023-03-22T06:37:29.835Z,10.70
2023-03-22T06:38:29.760Z,10.40
2023-03-22T06:39:29.740Z,10.00
2023-03-22T06:40:29.721Z,10.30
2023-03-22T06:41:29.692Z,10.40
2023-03-22T06:42:29.719Z,10.00
2023-03-22T06:43:29.656Z,10.30
2023-03-22T06:44:29.643Z,10.00
2023-03-22T06:45:29.611Z,10.20
2023-03-22T06:46:29.673Z,9.60
2023-03-22T06:47:29.594Z,10.10
2023-03-22T06:48:29.664Z,9.70
2023-03-22T06:49:29.537Z,9.90
2023-03-22T06:50:29.513Z,9.60
2023-03-22T06:51:29.500Z,9.40
2023-03-22T06:52:29.518Z,9.30
2023-03-22T06:53:29.458Z,9.60
2023-03-22T06:54:29.444Z,8.90
2023-03-22T06:55:29.430Z,9.60
2023-03-22T06:56:29.411Z,9.70
2023-03-22T06:57:29.416Z,9.70
2023-03-22T06:58:29.376Z,10.50
2023-03-22T06:59:29.344Z,10.10
2023-03-22T07:00:29.336Z,10.00
2023-03-22T07:01:29.369Z,10.80
2023-03-22T07:02:29.329Z,10.40
2023-03-22T07:03:29.318Z,10.60
2023-03-22T07:04:29.343Z,10.40
2023-03-22T07:05:29.237Z,9.90
2023-03-22T07:06:29.219Z,10.70
2023-03-22T07:07:29.230Z,10.60
2023-03-22T07:08:29.173Z,10.40
2023-03-22T07:09:29.178Z,10.50
2023-03-22T07:10:29.131Z,10.60
2023-03-22T07:11:29.127Z,10.80
2023-03-22T07:12:29.123Z,10.40
2023-03-22T07:13:29.068Z,10.30
2023-03-22T07:14:29.054Z,10.40
2023-03-22T07:15:29.036Z,10.00
2023-03-22T07:16:29.177Z,9.70
2023-03-22T07:17:29.014Z,9.70
2023-03-22T07:18:28.957Z,10.40
2023-03-22T07:19:28.933Z,9.40
2023-03-22T07:20:28.926Z,9.20
2023-03-22T07:21:28.894Z,9.70
2023-03-22T07:22:28.958Z,9.80
2023-03-22T07:23:28.854Z,9.70
2023-03-22T07:24:28.846Z,9.40
2023-03-22T07:25:28.821Z,9.40
2023-03-22T07:26:28.802Z,9.90
2023-03-22T07:27:28.806Z,10.10
2023-03-22T07:28:28.769Z,9.90
2023-03-22T07:29:28.822Z,10.40
2023-03-22T07:30:28.730Z,9.90
2023-03-22T07:31:28.842Z,10.60
2023-03-22T07:32:28.751Z,9.90
2023-03-22T07:33:28.691Z,10.50
2023-03-22T07:34:28.667Z,10.00
2023-03-22T07:35:28.653Z,10.30
2023-03-22T07:36:28.605Z,10.60
2023-03-22T07:37:28.626Z,10.30
2023-03-22T07:38:28.610Z,10.50
2023-03-22T07:39:28.577Z,10.80
2023-03-22T07:40:28.553Z,11.00
2023-03-22T07:41:28.534Z,11.70
2023-03-22T07:42:28.566Z,11.40
2023-03-22T07:43:28.516Z,11.40
2023-03-22T07:44:28.489Z,11.50
2023-03-22T07:45:28.775Z,11.90
2023-03-22T07:46:28.534Z,12.00
2023-03-22T07:47:40.456Z,12.30
2023-03-22T07:48:30.531Z,12.70
2023-03-22T07:49:28.428Z,13.30
2023-03-22T07:50:28.450Z,13.40
2023-03-22T07:51:28.346Z,13.00
2023-03-22T07:52:28.358Z,13.20
2023-03-22T07:53:28.309Z,13.40
2023-03-22T07:54:33.723Z,13.10
2023-03-22T07:55:30.304Z,13.00
2023-03-22T07:56:28.274Z,11.50
2023-03-22T07:57:28.266Z,11.40
2023-03-22T07:58:28.240Z,11.60
2023-03-22T07:59:28.230Z,11.70
2023-03-22T08:00:28.175Z,12.00
2023-03-22T08:01:28.193Z,12.20
2023-03-22T08:02:28.257Z,12.10
2023-03-22T08:03:28.192Z,10.40
2023-03-22T08:04:28.097Z,10.10
2023-03-22T08:05:28.084Z,9.20
2023-03-22T08:06:28.053Z,9.40
2023-03-22T08:07:28.070Z,9.10
2023-03-22T08:08:28.011Z,9.20
2023-03-22T08:09:27.985Z,9.40
2023-03-22T08:10:28.025Z,9.60
2023-03-22T08:11:27.954Z,8.90
2023-03-22T08:12:27.962Z,9.30
2023-03-22T08:13:27.908Z,9.00
2023-03-22T08:14:36.241Z,8.80
2023-03-22T08:15:29.868Z,9.10
2023-03-22T08:16:27.873Z,8.60
2023-03-22T08:17:27.865Z,9.00
2023-03-22T08:18:27.799Z,9.00
2023-03-22T08:19:27.772Z,8.60
2023-03-22T08:20:27.789Z,8.20
2023-03-22T08:21:27.732Z,8.40
2023-03-22T08:22:27.735Z,8.10
2023-03-22T08:23:40.480Z,8.40
2023-03-22T08:24:29.658Z,8.40
2023-03-22T08:25:27.707Z,8.70
2023-03-22T08:26:27.758Z,8.10
2023-03-22T08:27:27.627Z,7.70
2023-03-22T08:28:27.575Z,7.90
2023-03-22T08:29:27.559Z,7.60
2023-03-22T08:30:27.600Z,7.40
2023-03-22T08:31:27.558Z,6.90
2023-03-22T08:32:27.555Z,6.60
2023-03-22T08:33:27.704Z,6.70
2023-03-22T08:34:27.441Z,6.40
2023-03-22T08:35:27.501Z,6.40
2023-03-22T08:36:27.599Z,5.90
2023-03-22T08:37:27.433Z,6.00
2023-03-22T08:38:27.372Z,5.70
2023-03-22T08:39:27.376Z,5.80
2023-03-22T08:40:27.483Z,5.70
2023-03-22T08:41:27.305Z,5.40
2023-03-22T08:42:27.307Z,5.20
2023-03-22T08:43:27.255Z,5.20
2023-03-22T08:44:27.233Z,4.70
2023-03-22T08:45:27.216Z,5.40
2023-03-22T08:46:27.255Z,4.90
2023-03-22T08:47:27.192Z,4.40
2023-03-22T08:48:27.178Z,4.80
2023-03-22T08:49:27.124Z,4.60
2023-03-22T08:50:27.122Z,4.50
2023-03-22T08:51:27.078Z,4.20
2023-03-22T08:52:27.124Z,4.50
2023-03-22T08:53:27.040Z,4.90
2023-03-22T08:54:27.024Z,4.40
2023-03-22T08:55:27.825Z,4.20
2023-03-22T08:56:26.982Z,4.40
2023-03-22T08:57:27.018Z,4.30
2023-03-22T08:58:26.948Z,4.40
2023-03-22T08:59:26.931Z,4.20
2023-03-22T09:00:32.007Z,4.70
2023-03-22T09:01:27.963Z,4.00
2023-03-22T09:02:26.944Z,4.40
2023-03-22T09:03:26.861Z,4.40
2023-03-22T09:04:26.878Z,4.00
2023-03-22T09:05:26.819Z,4.40
2023-03-22T09:06:26.801Z,4.20
2023-03-22T09:07:26.811Z,4.00
2023-03-22T09:08:26.765Z,4.10
2023-03-22T09:09:26.747Z,4.60
2023-03-22T09:10:26.730Z,4.30
2023-03-22T09:11:26.701Z,4.30
2023-03-22T09:12:26.737Z,4.00
2023-03-22T09:13:26.671Z,4.40
2023-03-22T09:14:26.652Z,4.50
2023-03-22T09:15:26.634Z,4.70
2023-03-22T09:16:26.719Z,4.70
2023-03-22T09:17:26.636Z,4.90
2023-03-22T09:18:26.595Z,4.80
2023-03-22T09:19:26.572Z,5.10
2023-03-22T09:20:26.823Z,4.80
2023-03-22T09:21:26.534Z,5.20
2023-03-22T09:22:26.538Z,5.00
2023-03-22T09:23:26.491Z,4.80
2023-03-22T09:24:26.462Z,4.70
2023-03-22T09:25:26.470Z,4.80
2023-03-22T09:26:26.424Z,5.20
2023-03-22T09:27:26.442Z,4.90
2023-03-22T09:28:26.526Z,4.50
2023-03-22T09:29:26.365Z,4.60
2023-03-22T09:30:26.345Z,4.70
2023-03-22T09:31:26.404Z,4.70
2023-03-22T09:32:26.338Z,4.70
2023-03-22T09:33:26.283Z,4.80
2023-03-22T09:34:26.270Z,4.60
2023-03-22T09:35:26.317Z,4.20
2023-03-22T09:36:26.229Z,4.50
2023-03-22T09:37:26.254Z,4.40
2023-03-22T09:38:26.187Z,4.30
2023-03-22T09:39:26.171Z,4.40
2023-03-22T09:40:26.175Z,4.40
2023-03-22T09:41:26.122Z,4.30
2023-03-22T09:42:26.104Z,4.20
2023-03-22T09:43:26.114Z,4.20
2023-03-22T09:44:26.066Z,4.20
2023-03-22T09:45:26.057Z,4.20
2023-03-22T09:46:26.134Z,4.40
2023-03-22T09:47:30.722Z,4.30
2023-03-22T09:48:28.083Z,4.20
2023-03-22T09:49:25.977Z,4.20
2023-03-22T09:50:25.967Z,4.20
2023-03-22T09:51:25.931Z,4.30
2023-03-22T09:52:25.939Z,4.30
2023-03-22T09:53:25.926Z,4.30
2023-03-22T09:54:25.871Z,4.10
2023-03-22T09:55:25.859Z,4.00
2023-03-22T09:56:25.840Z,4.10
2023-03-22T09:57:25.867Z,4.00
2023-03-22T09:58:25.892Z,3.70
2023-03-22T09:59:25.776Z,3.70
2023-03-22T10:00:25.861Z,3.60
2023-03-22T10:01:25.907Z,3.40
2023-03-22T10:02:25.742Z,4.00
2023-03-22T10:03:25.731Z,3.70
2023-03-22T10:04:25.725Z,3.90
2023-03-22T10:05:25.672Z,3.80
2023-03-22T10:06:26.098Z,3.70
2023-03-22T10:07:25.671Z,3.70
2023-03-22T10:08:25.638Z,3.90
2023-03-22T10:09:25.598Z,4.00
2023-03-22T10:10:25.573Z,4.20
2023-03-22T10:11:25.546Z,4.20
2023-03-22T10:12:25.535Z,3.70
2023-03-22T10:13:25.545Z,4.00
2023-03-22T10:14:26.314Z,4.10
2023-03-22T10:15:25.463Z,4.10
2023-03-22T10:16:25.458Z,4.40
2023-03-22T10:17:25.429Z,4.50
2023-03-22T10:18:25.432Z,4.00
2023-03-22T10:19:25.377Z,4.10
2023-03-22T10:20:25.362Z,3.90
2023-03-22T10:21:25.367Z,4.40
2023-03-22T10:22:25.338Z,4.20
2023-03-22T10:23:25.330Z,4.30
2023-03-22T10:24:25.290Z,4.50
2023-03-22T10:25:25.254Z,4.40
2023-03-22T10:26:25.239Z,4.00
2023-03-22T10:27:25.255Z,4.40
2023-03-22T10:28:25.226Z,3.90
2023-03-22T10:29:25.180Z,4.30
2023-03-22T10:30:25.159Z,4.00
2023-03-22T10:31:25.171Z,3.90
2023-03-22T10:32:25.130Z,3.80
2023-03-22T10:33:25.638Z,3.80
2023-03-22T10:34:25.072Z,3.80
2023-03-22T10:35:25.111Z,3.70
2023-03-22T10:36:25.022Z,4.00
2023-03-22T10:37:25.002Z,3.80
2023-03-22T10:38:25.011Z,3.70
2023-03-22T10:39:24.956Z,4.10
2023-03-22T10:40:24.942Z,4.20
2023-03-22T10:41:24.939Z,3.60
2023-03-22T10:42:24.908Z,3.60
2023-03-22T10:43:24.901Z,3.80
2023-03-22T10:44:24.861Z,3.90
2023-03-22T10:45:24.824Z,3.70
2023-03-22T10:46:25.838Z,3.50
2023-03-22T10:47:24.785Z,3.70
2023-03-22T10:48:24.824Z,3.70
2023-03-22T10:49:24.745Z,3.30
2023-03-22T10:50:24.722Z,3.30
2023-03-22T10:51:24.699Z,3.60
2023-03-22T10:52:24.681Z,3.90
2023-03-22T10:53:24.807Z,3.50
2023-03-22T10:54:26.096Z,3.40
2023-03-22T10:55:25.623Z,3.70
2023-03-22T10:56:24.594Z,3.40
2023-03-22T10:57:24.586Z,3.30
2023-03-22T10:58:24.612Z,3.80
2023-03-22T10:59:24.525Z,3.50
2023-03-22T11:00:24.796Z,3.40
2023-03-22T11:01:24.604Z,3.40
2023-03-22T11:02:24.545Z,3.40
2023-03-22T11:03:24.468Z,4.00
2023-03-22T11:04:24.423Z,3.50
2023-03-22T11:05:24.394Z,3.60
2023-03-22T11:06:24.399Z,3.40
2023-03-22T11:07:24.356Z,3.70
2023-03-22T11:08:24.364Z,3.10
2023-03-22T11:09:24.309Z,3.50
2023-03-22T11:10:24.335Z,3.30
2023-03-22T11:11:24.275Z,3.40
2023-03-22T11:12:24.245Z,3.70
2023-03-22T11:13:24.257Z,3.30
2023-03-22T11:14:24.213Z,3.40
2023-03-22T11:15:24.197Z,3.20
2023-03-22T11:16:24.221Z,3.50
2023-03-22T11:17:24.140Z,3.10
2023-03-22T11:18:24.143Z,3.20
2023-03-22T11:19:24.102Z,3.20
2023-03-22T11:20:24.157Z,3.00
2023-03-22T11:21:24.054Z,3.10
2023-03-22T11:22:24.025Z,3.10
2023-03-22T11:23:24.031Z,3.30
2023-03-22T11:24:23.988Z,3.20
2023-03-22T11:25:23.958Z,2.90
2023-03-22T11:27:23.947Z,2.90
2023-03-22T11:28:23.922Z,2.80
2023-03-22T11:29:23.874Z,2.80
2023-03-22T11:30:23.856Z,2.80
2023-03-22T11:31:23.844Z,2.80
2023-03-22T11:32:23.869Z,2.70
2023-03-22T11:33:23.830Z,2.70
2023-03-22T11:34:23.769Z,2.60
2023-03-22T11:35:23.787Z,2.80
2023-03-22T11:36:23.742Z,3.00
2023-03-22T11:37:24.703Z,2.90
2023-03-22T11:38:23.705Z,2.80
2023-03-22T11:39:23.661Z,3.10
2023-03-22T11:40:23.637Z,2.70
2023-03-22T11:41:23.614Z,2.70
2023-03-22T11:42:23.598Z,2.90
2023-03-22T11:43:23.603Z,2.90
2023-03-22T11:44:23.554Z,2.90
2023-03-22T11:45:23.536Z,3.10
2023-03-22T11:46:23.552Z,2.60
2023-03-22T11:47:23.488Z,2.60
2023-03-22T11:48:23.601Z,2.40
2023-03-22T11:49:23.450Z,2.50
2023-03-22T11:50:23.425Z,2.30
2023-03-22T11:51:23.434Z,2.30
2023-03-22T11:52:23.393Z,2.40
2023-03-22T11:53:23.403Z,2.10
2023-03-22T11:54:23.341Z,2.30
2023-03-22T11:55:23.314Z,2.40
2023-03-22T11:56:23.290Z,2.20
2023-03-22T11:57:23.271Z,2.30
2023-03-22T11:58:24.079Z,2.30
2023-03-22T11:59:23.243Z,2.10
2023-03-22T12:00:23.217Z,2.20
2023-03-22T12:01:23.195Z,2.20
2023-03-22T12:02:23.259Z,2.30
2023-03-22T12:03:23.267Z,2.10
2023-03-22T12:04:23.130Z,1.80
2023-03-22T12:05:23.218Z,2.00
2023-03-22T12:06:23.152Z,2.00
2023-03-22T12:07:23.058Z,2.20
2023-03-22T12:08:23.072Z,2.00
2023-03-22T12:09:23.118Z,1.90
2023-03-22T12:10:23.107Z,2.00
2023-03-22T12:11:22.982Z,2.20
2023-03-22T12:12:22.991Z,2.00
2023-03-22T12:13:22.971Z,1.90
2023-03-22T12:14:22.912Z,2.00
2023-03-22T12:15:22.885Z,1.90
2023-03-22T12:16:24.983Z,2.30
2023-03-22T12:17:23.851Z,2.10
2023-03-22T12:18:22.973Z,1.80
2023-03-22T12:19:22.812Z,1.90
2023-03-22T12:20:22.824Z,1.90
2023-03-22T12:21:22.763Z,1.90
2023-03-22T12:22:22.732Z,1.90
2023-03-22T12:23:22.769Z,1.70
2023-03-22T12:24:22.708Z,1.70
2023-03-22T12:25:22.686Z,1.70
2023-03-22T12:26:22.686Z,1.90
2023-03-22T12:27:22.636Z,1.80
2023-03-22T12:28:22.664Z,1.70
2023-03-22T12:29:22.597Z,1.60
2023-03-22T12:30:22.588Z,1.70
2023-03-22T12:31:22.604Z,1.50
2023-03-22T12:32:22.565Z,1.70
2023-03-22T12:33:22.539Z,1.60
2023-03-22T12:34:22.494Z,1.60
2023-03-22T12:35:22.476Z,1.50
2023-03-22T12:36:22.481Z,1.70
2023-03-22T12:37:22.436Z,1.70
2023-03-22T12:38:22.439Z,1.50
2023-03-22T12:39:22.379Z,1.40
2023-03-22T12:40:22.365Z,1.40
2023-03-22T12:41:22.345Z,1.50
2023-03-22T12:42:22.324Z,1.30
2023-03-22T12:43:22.335Z,1.50
2023-03-22T12:44:22.271Z,1.60
2023-03-22T12:45:23.269Z,1.30
2023-03-22T12:46:22.333Z,1.50
2023-03-22T12:47:22.249Z,1.70
2023-03-22T12:48:22.364Z,1.30
2023-03-22T12:49:22.205Z,1.50
2023-03-22T12:50:22.164Z,1.50
2023-03-22T12:51:22.156Z,1.30
2023-03-22T12:52:22.124Z,1.50
2023-03-22T12:53:22.236Z,1.30
2023-03-22T12:54:22.115Z,1.20
2023-03-22T12:55:22.071Z,1.30
2023-03-22T12:56:22.098Z,1.40
2023-03-22T12:57:22.050Z,1.20
2023-03-22T12:58:21.997Z,1.30
2023-03-22T12:59:22.006Z,1.30
2023-03-22T13:00:22.005Z,1.20
2023-03-22T13:01:21.987Z,1.20
2023-03-22T13:02:21.991Z,1.10
2023-03-22T13:03:21.980Z,1.30
2023-03-22T13:04:23.093Z,1.30